Time;durP1;ratioP1;P1;durP2;ratioP2;P2;SDS_P1;SDS_P2;PMS_P1;PMS_P2;Temp;Humidity;BMP_temperature;BMP_pressure;BME280_temperature;BME280_humidity;BME280_pressure;Samples;Min_cycle;Max_cycle;Signal;HPM_P1;HPM_P2
2022/10/09 00:02:02;;;;;;;19.42;8.25;;;;;;;;;;4858962;29;20033;-63
2022/10/09 00:04:27;;;;;;;13.88;7.60;;;;;;;;;;4869007;29;20038;-63
2022/10/09 00:06:52;;;;;;;15.07;8.27;;;;;;;;;;4869279;29;20195;-63
2022/10/09 00:09:18;;;;;;;14.80;8.70;;;;;;;;;;4870126;29;20120;-62
2022/10/09 00:11:43;;;;;;;15.85;8.40;;;;;;;;;;4862571;29;20045;-62
2022/10/09 00:14:09;;;;;;;18.73;8.68;;;;;;;;;;4873777;29;20059;-62
2022/10/09 00:16:34;;;;;;;19.77;8.65;;;;;;;;;;4864360;29;20061;-63
2022/10/09 00:19:00;;;;;;;17.35;7.90;;;;;;;;;;4868501;29;20493;-62
2022/10/09 00:21:30;;;;;;;19.25;8.40;;;;;;;;;;4868830;29;20056;-61
2022/10/09 00:23:58;;;;;;;16.42;8.80;;;;;;;;;;4874801;29;20044;-62
2022/10/09 00:26:25;;;;;;;12.65;8.45;;;;;;;;;;4877114;29;20514;-63
2022/10/09 00:28:51;;;;;;;15.15;8.25;;;;;;;;;;4861046;29;20041;-63
2022/10/09 00:31:17;;;;;;;16.45;8.27;;;;;;;;;;4881365;29;20037;-62
2022/10/09 00:33:42;;;;;;;17.40;7.38;;;;;;;;;;4861110;29;20037;-63
2022/10/09 00:36:17;;;;;;;15.68;7.93;;;;;;;;;;4867180;29;20098;-62
2022/10/09 00:38:43;;;;;;;13.70;7.80;;;;;;;;;;4863011;29;20089;-62
2022/10/09 00:41:16;;;;;;;14.57;7.40;;;;;;;;;;4857163;29;20041;-62
2022/10/09 00:43:59;;;;;;;13.00;7.47;;;;;;;;;;4864000;29;20037;-60
2022/10/09 00:46:36;;;;;;;13.25;6.85;;;;;;;;;;4864661;29;20029;-61
2022/10/09 00:49:26;;;;;;;13.00;7.13;;;;;;;;;;4875291;29;20123;-62
2022/10/09 00:51:54;;;;;;;15.73;7.43;;;;;;;;;;4863547;29;20112;-63
2022/10/09 00:54:23;;;;;;;15.07;6.88;;;;;;;;;;4866851;29;20033;-62
2022/10/09 00:56:48;;;;;;;15.00;6.93;;;;;;;;;;4863145;29;20041;-61
2022/10/09 00:59:16;;;;;;;13.18;7.82;;;;;;;;;;4873403;29;20036;-61
2022/10/09 01:01:41;;;;;;;11.95;7.45;;;;;;;;;;4863564;29;20378;-61
2022/10/09 01:04:07;;;;;;;16.27;6.97;;;;;;;;;;4860381;29;20159;-61
2022/10/09 01:06:41;;;;;;;11.95;6.78;;;;;;;;;;4867160;29;20046;-61
2022/10/09 01:09:16;;;;;;;15.05;7.07;;;;;;;;;;4859667;29;20041;-61
2022/10/09 01:11:57;;;;;;;16.92;7.60;;;;;;;;;;4872620;29;20051;-63
2022/10/09 01:14:27;;;;;;;;;;;;;;;;;;4845836;29;20041;-60
2022/10/09 01:17:01;;;;;;;14.60;7.17;;;;;;;;;;4861658;29;19916;-62
2022/10/09 01:20:00;;;;;;;18.80;7.95;;;;;;;;;;4860205;29;20051;-62
2022/10/09 01:22:42;;;;;;;14.85;7.35;;;;;;;;;;4862091;29;20703;-62
2022/10/09 01:25:13;;;;;;;15.00;7.82;;;;;;;;;;4847715;29;20030;-62
2022/10/09 01:27:40;;;;;;;14.50;7.50;;;;;;;;;;4875882;29;20033;-63
2022/10/09 01:30:09;;;;;;;13.82;7.95;;;;;;;;;;4871522;29;20508;-61
2022/10/09 01:32:39;;;;;;;12.95;8.00;;;;;;;;;;4866665;29;20036;-61
2022/10/09 01:35:06;;;;;;;13.98;7.70;;;;;;;;;;4867832;29;20102;-62
2022/10/09 01:37:34;;;;;;;13.43;7.22;;;;;;;;;;4859144;29;20041;-61
2022/10/09 01:40:00;;;;;;;14.93;7.70;;;;;;;;;;4871995;29;20336;-62
2022/10/09 01:42:28;;;;;;;14.07;8.10;;;;;;;;;;4862400;29;20044;-62
2022/10/09 01:44:53;;;;;;;13.50;7.53;;;;;;;;;;4868319;29;20081;-62
2022/10/09 01:47:20;;;;;;;14.98;7.18;;;;;;;;;;4867397;29;20033;-62
2022/10/09 01:49:52;;;;;;;11.98;6.97;;;;;;;;;;4857146;29;20037;-63
2022/10/09 01:52:27;;;;;;;10.38;6.43;;;;;;;;;;4874368;29;20046;-62
2022/10/09 01:55:26;;;;;;;13.80;7.80;;;;;;;;;;4874976;29;20041;-62
2022/10/09 01:58:03;;;;;;;10.18;6.15;;;;;;;;;;4858149;29;20041;-62
2022/10/09 02:00:34;;;;;;;16.52;7.22;;;;;;;;;;4871127;29;20475;-61
2022/10/09 02:03:03;;;;;;;12.43;7.72;;;;;;;;;;4856592;29;20054;-62
2022/10/09 02:05:30;;;;;;;14.32;6.68;;;;;;;;;;4864733;29;20053;-61
2022/10/09 02:07:57;;;;;;;12.45;6.57;;;;;;;;;;4874809;29;20151;-62
2022/10/09 02:10:23;;;;;;;13.45;6.88;;;;;;;;;;4861675;29;20251;-61
2022/10/09 02:12:59;;;;;;;15.30;6.65;;;;;;;;;;4856043;29;20479;-63
2022/10/09 02:15:41;;;;;;;13.80;6.97;;;;;;;;;;4857231;29;20046;-63
2022/10/09 02:18:13;;;;;;;12.70;6.68;;;;;;;;;;4867681;29;20045;-62
2022/10/09 02:20:44;;;;;;;14.43;6.78;;;;;;;;;;4863265;29;20033;-64
2022/10/09 02:23:12;;;;;;;13.25;7.03;;;;;;;;;;4875369;29;20053;-62
2022/10/09 02:25:37;;;;;;;12.20;6.10;;;;;;;;;;4873891;29;20036;-64
2022/10/09 02:28:04;;;;;;;16.83;6.72;;;;;;;;;;4875111;29;20386;-62
2022/10/09 02:30:43;;;;;;;16.77;7.68;;;;;;;;;;4865764;29;20512;-62
2022/10/09 02:33:08;;;;;;;13.77;6.88;;;;;;;;;;4870592;29;20040;-62
2022/10/09 02:35:34;;;;;;;15.15;7.32;;;;;;;;;;4870326;29;20041;-62
2022/10/09 02:37:59;;;;;;;12.02;7.38;;;;;;;;;;4874603;29;20032;-62
2022/10/09 02:40:25;;;;;;;15.02;6.75;;;;;;;;;;4864654;29;20492;-61
2022/10/09 02:42:50;;;;;;;14.52;6.63;;;;;;;;;;4874456;29;20108;-62
2022/10/09 02:45:15;;;;;;;12.20;6.43;;;;;;;;;;4859716;29;20116;-63
2022/10/09 02:47:41;;;;;;;13.55;6.88;;;;;;;;;;4871017;29;20039;-63
2022/10/09 02:50:07;;;;;;;15.98;6.50;;;;;;;;;;4861113;29;20133;-62
2022/10/09 02:52:32;;;;;;;13.57;6.18;;;;;;;;;;4877897;29;20089;-62
2022/10/09 02:54:57;;;;;;;13.43;6.80;;;;;;;;;;4859096;29;20636;-62
2022/10/09 02:57:23;;;;;;;16.20;7.55;;;;;;;;;;4878059;29;20107;-63
2022/10/09 02:59:48;;;;;;;15.02;7.13;;;;;;;;;;4860749;29;20034;-62
2022/10/09 03:02:14;;;;;;;9.77;6.47;;;;;;;;;;4860581;29;20045;-63
2022/10/09 03:04:39;;;;;;;12.18;7.10;;;;;;;;;;4858023;29;20101;-63
2022/10/09 03:07:04;;;;;;;17.42;7.20;;;;;;;;;;4863369;29;20482;-61
2022/10/09 03:09:30;;;;;;;16.25;7.40;;;;;;;;;;4859774;29;20032;-61
2022/10/09 03:11:55;;;;;;;17.30;6.45;;;;;;;;;;4861872;29;20049;-62
2022/10/09 03:14:20;;;;;;;13.75;6.93;;;;;;;;;;4861259;29;20030;-61
2022/10/09 03:16:46;;;;;;;15.73;6.88;;;;;;;;;;4857324;29;20044;-62
2022/10/09 03:19:11;;;;;;;14.18;6.40;;;;;;;;;;4875778;29;20102;-62
2022/10/09 03:21:36;;;;;;;14.20;6.85;;;;;;;;;;4866093;29;20475;-62
2022/10/09 03:24:02;;;;;;;16.13;6.65;;;;;;;;;;4868586;29;20048;-61
2022/10/09 03:26:28;;;;;;;16.58;7.60;;;;;;;;;;4858486;29;20041;-62
2022/10/09 03:28:54;;;;;;;18.30;7.82;;;;;;;;;;4869964;29;20037;-63
2022/10/09 03:31:22;;;;;;;18.13;7.25;;;;;;;;;;4862785;29;20490;-63
2022/10/09 03:33:47;;;;;;;15.95;7.60;;;;;;;;;;4874915;29;20033;-62
2022/10/09 03:36:13;;;;;;;12.68;6.85;;;;;;;;;;4873114;29;20037;-62
2022/10/09 03:38:39;;;;;;;14.38;6.90;;;;;;;;;;4869449;29;20399;-63
2022/10/09 03:41:05;;;;;;;14.25;7.50;;;;;;;;;;4860398;29;20459;-63
2022/10/09 03:43:31;;;;;;;13.75;6.90;;;;;;;;;;4865670;29;20089;-63
2022/10/09 03:45:57;;;;;;;12.88;6.80;;;;;;;;;;4858487;29;20712;-61
2022/10/09 03:48:23;;;;;;;12.55;7.15;;;;;;;;;;4867780;29;20404;-61
2022/10/09 03:50:48;;;;;;;13.27;6.85;;;;;;;;;;4865128;29;20407;-62
2022/10/09 03:53:14;;;;;;;13.82;7.03;;;;;;;;;;4874889;29;20121;-61
2022/10/09 03:55:40;;;;;;;17.77;7.18;;;;;;;;;;4873754;29;20048;-63
2022/10/09 03:58:06;;;;;;;13.65;7.38;;;;;;;;;;4868211;29;20049;-63
2022/10/09 04:00:32;;;;;;;11.80;6.82;;;;;;;;;;4867587;29;20041;-62
2022/10/09 04:02:57;;;;;;;16.25;7.15;;;;;;;;;;4868511;29;20055;-63
2022/10/09 04:05:23;;;;;;;14.00;6.65;;;;;;;;;;4861507;29;20440;-63
2022/10/09 04:07:48;;;;;;;12.63;6.78;;;;;;;;;;4864872;29;20120;-62
2022/10/09 04:10:13;;;;;;;11.52;6.55;;;;;;;;;;4872486;29;20045;-61
2022/10/09 04:12:39;;;;;;;15.20;6.93;;;;;;;;;;4862961;29;20044;-62
2022/10/09 04:15:05;;;;;;;14.55;6.80;;;;;;;;;;4870511;29;20031;-61
2022/10/09 04:17:30;;;;;;;16.50;6.80;;;;;;;;;;4860473;29;20037;-61
2022/10/09 04:19:56;;;;;;;11.93;6.70;;;;;;;;;;4875837;29;20134;-61
2022/10/09 04:22:21;;;;;;;13.82;7.03;;;;;;;;;;4872854;29;20041;-62
2022/10/09 04:24:46;;;;;;;14.75;6.78;;;;;;;;;;4865449;29;20044;-61
2022/10/09 04:27:12;;;;;;;16.40;7.07;;;;;;;;;;4874916;29;20037;-61
2022/10/09 04:29:38;;;;;;;14.70;6.18;;;;;;;;;;4878660;29;20527;-63
2022/10/09 04:32:04;;;;;;;13.77;6.07;;;;;;;;;;4868066;29;20038;-62
2022/10/09 04:34:29;;;;;;;13.95;6.70;;;;;;;;;;4876751;29;20044;-61
2022/10/09 04:36:54;;;;;;;19.35;6.30;;;;;;;;;;4874301;29;20176;-62
2022/10/09 04:39:20;;;;;;;21.70;6.80;;;;;;;;;;4875411;29;20767;-62
2022/10/09 04:41:45;;;;;;;13.05;6.40;;;;;;;;;;4874082;29;20040;-63
2022/10/09 04:44:11;;;;;;;14.38;6.68;;;;;;;;;;4859724;29;20037;-61
2022/10/09 04:46:36;;;;;;;15.90;6.72;;;;;;;;;;4869434;29;20119;-64
2022/10/09 04:49:02;;;;;;;17.13;6.97;;;;;;;;;;4873098;29;20025;-61
2022/10/09 04:51:27;;;;;;;15.65;7.57;;;;;;;;;;4868923;29;20154;-62
2022/10/09 04:53:54;;;;;;;18.38;7.32;;;;;;;;;;4875051;29;20033;-62
2022/10/09 04:56:20;;;;;;;16.67;6.85;;;;;;;;;;4862191;29;20432;-63
2022/10/09 04:58:47;;;;;;;14.55;7.50;;;;;;;;;;4858048;29;20041;-63
2022/10/09 05:01:16;;;;;;;18.83;7.22;;;;;;;;;;4868488;29;20037;-62
2022/10/09 05:03:42;;;;;;;18.00;6.85;;;;;;;;;;4866668;29;20116;-63
2022/10/09 05:06:09;;;;;;;16.52;7.20;;;;;;;;;;4869858;29;20501;-61
2022/10/09 05:08:35;;;;;;;16.27;6.90;;;;;;;;;;4871975;29;20045;-61
2022/10/09 05:11:13;;;;;;;18.35;7.68;;;;;;;;;;4873618;29;20139;-63
2022/10/09 05:13:40;;;;;;;16.42;7.22;;;;;;;;;;4844565;29;20034;-63
2022/10/09 05:16:09;;;;;;;15.15;6.78;;;;;;;;;;4865169;29;20187;-62
2022/10/09 05:18:35;;;;;;;14.93;6.63;;;;;;;;;;4865732;29;20037;-62
2022/10/09 05:21:04;;;;;;;15.38;6.95;;;;;;;;;;4876837;29;20466;-62
2022/10/09 05:23:31;;;;;;;16.65;7.82;;;;;;;;;;4863611;29;20041;-62
2022/10/09 05:26:00;;;;;;;17.50;7.63;;;;;;;;;;4856946;29;20193;-61
2022/10/09 05:28:26;;;;;;;14.23;6.90;;;;;;;;;;4867604;29;20040;-61
2022/10/09 05:30:51;;;;;;;14.25;7.18;;;;;;;;;;4862712;29;20041;-61
2022/10/09 05:33:17;;;;;;;16.20;6.95;;;;;;;;;;4855887;29;20117;-62
2022/10/09 05:35:53;;;;;;;15.43;7.03;;;;;;;;;;4857612;29;20398;-60
2022/10/09 05:38:20;;;;;;;15.45;7.35;;;;;;;;;;4865873;29;20048;-61
2022/10/09 05:41:04;;;;;;;18.23;6.88;;;;;;;;;;4860343;29;20056;-62
2022/10/09 05:43:34;;;;;;;15.05;7.20;;;;;;;;;;4862459;29;20116;-62
2022/10/09 05:46:15;;;;;;;15.43;6.45;;;;;;;;;;4864460;29;20038;-63
2022/10/09 05:48:42;;;;;;;16.13;6.88;;;;;;;;;;4859125;29;20040;-63
2022/10/09 05:51:16;;;;;;;19.13;8.02;;;;;;;;;;4871520;29;20047;-61
2022/10/09 05:53:43;;;;;;;17.25;7.45;;;;;;;;;;4869409;29;20394;-61
2022/10/09 05:56:18;;;;;;;17.85;7.72;;;;;;;;;;4874622;29;20487;-62
2022/10/09 05:58:49;;;;;;;17.83;7.80;;;;;;;;;;4852871;29;20180;-63
2022/10/09 06:01:14;;;;;;;16.10;7.22;;;;;;;;;;4858516;29;20038;-62
2022/10/09 06:03:40;;;;;;;13.63;7.00;;;;;;;;;;4859566;29;20064;-63
2022/10/09 06:06:07;;;;;;;14.55;7.30;;;;;;;;;;4875989;29;20113;-62
2022/10/09 06:08:37;;;;;;;15.25;7.18;;;;;;;;;;4860976;29;20037;-62
2022/10/09 06:11:17;;;;;;;18.40;7.30;;;;;;;;;;4860728;29;20030;-62
2022/10/09 06:13:43;;;;;;;15.38;7.85;;;;;;;;;;4860557;29;20033;-61
2022/10/09 06:16:10;;;;;;;16.17;8.13;;;;;;;;;;4861408;29;20041;-61
2022/10/09 06:18:36;;;;;;;19.90;7.95;;;;;;;;;;4861599;29;20065;-62
2022/10/09 06:21:02;;;;;;;16.55;7.65;;;;;;;;;;4860954;29;20038;-62
2022/10/09 06:23:30;;;;;;;19.65;7.53;;;;;;;;;;4862190;29;20080;-61
2022/10/09 06:25:59;;;;;;;18.23;7.72;;;;;;;;;;4858274;29;20033;-62
2022/10/09 06:28:26;;;;;;;18.92;8.50;;;;;;;;;;4871030;29;20470;-61
2022/10/09 06:30:52;;;;;;;20.42;8.93;;;;;;;;;;4850021;29;20046;-61
2022/10/09 06:33:17;;;;;;;18.13;8.00;;;;;;;;;;4843578;29;20488;-61
2022/10/09 06:35:43;;;;;;;20.42;8.63;;;;;;;;;;4841160;29;20049;-61
2022/10/09 06:38:08;;;;;;;17.27;8.60;;;;;;;;;;4841786;29;20073;-64
2022/10/09 06:40:37;;;;;;;16.27;8.27;;;;;;;;;;4842789;29;20046;-65
2022/10/09 06:43:03;;;;;;;18.08;8.70;;;;;;;;;;4839911;29;20048;-62
2022/10/09 06:45:30;;;;;;;17.67;7.90;;;;;;;;;;4843527;29;20045;-62
2022/10/09 06:47:55;;;;;;;16.35;7.72;;;;;;;;;;4839922;29;20498;-63
2022/10/09 06:50:21;;;;;;;19.50;7.85;;;;;;;;;;4839255;29;20042;-63
2022/10/09 06:52:46;;;;;;;14.85;7.65;;;;;;;;;;4841085;29;20165;-62
2022/10/09 06:55:11;;;;;;;11.73;7.65;;;;;;;;;;4842188;29;20030;-64
2022/10/09 06:57:37;;;;;;;19.17;7.97;;;;;;;;;;4842213;29;20356;-65
2022/10/09 07:00:03;;;;;;;19.95;7.82;;;;;;;;;;4844737;29;20048;-63
2022/10/09 07:02:31;;;;;;;21.38;7.82;;;;;;;;;;4841033;29;20053;-64
2022/10/09 07:04:56;;;;;;;21.77;8.52;;;;;;;;;;4841902;29;20905;-63
2022/10/09 07:07:22;;;;;;;17.95;8.85;;;;;;;;;;4840094;29;20037;-64
2022/10/09 07:09:47;;;;;;;19.40;8.75;;;;;;;;;;4838310;29;20075;-65
2022/10/09 07:12:13;;;;;;;22.38;9.10;;;;;;;;;;4840729;29;20034;-63
2022/10/09 07:14:38;;;;;;;21.08;8.38;;;;;;;;;;4842033;29;20046;-65
2022/10/09 07:17:04;;;;;;;23.15;9.20;;;;;;;;;;4841696;29;20539;-64
2022/10/09 07:19:30;;;;;;;22.67;9.38;;;;;;;;;;4841939;29;20034;-64
2022/10/09 07:21:55;;;;;;;17.02;8.38;;;;;;;;;;4841319;29;20500;-63
2022/10/09 07:24:23;;;;;;;18.10;8.73;;;;;;;;;;4840238;29;20095;-64
2022/10/09 07:26:49;;;;;;;23.02;9.27;;;;;;;;;;4843982;29;20030;-63
2022/10/09 07:29:16;;;;;;;18.08;8.98;;;;;;;;;;4851127;29;20113;-62
2022/10/09 07:31:42;;;;;;;17.40;8.98;;;;;;;;;;4840314;29;20042;-65
2022/10/09 07:34:08;;;;;;;24.42;9.27;;;;;;;;;;4842349;29;20041;-62
2022/10/09 07:36:33;;;;;;;23.27;9.32;;;;;;;;;;4841003;29;20042;-62
2022/10/09 07:38:59;;;;;;;19.58;8.90;;;;;;;;;;4840622;29;20145;-64
2022/10/09 07:41:27;;;;;;;16.42;8.70;;;;;;;;;;4840793;29;20139;-63
2022/10/09 07:43:53;;;;;;;19.60;9.27;;;;;;;;;;4840920;29;20452;-63
2022/10/09 07:46:20;;;;;;;16.85;9.43;;;;;;;;;;4841022;29;20038;-63
2022/10/09 07:48:45;;;;;;;24.67;9.10;;;;;;;;;;4840338;29;20057;-63
2022/10/09 07:51:31;;;;;;;18.15;9.13;;;;;;;;;;4841129;29;20475;-63
2022/10/09 07:53:59;;;;;;;18.63;8.85;;;;;;;;;;4838551;29;20483;-63
2022/10/09 07:56:27;;;;;;;21.33;9.52;;;;;;;;;;4840890;29;20432;-63
2022/10/09 07:58:59;;;;;;;20.73;9.20;;;;;;;;;;4840392;29;20065;-63
2022/10/09 08:01:28;;;;;;;18.33;8.38;;;;;;;;;;4841075;29;20090;-65
2022/10/09 08:03:55;;;;;;;15.18;8.40;;;;;;;;;;4839583;29;20402;-65
2022/10/09 08:06:21;;;;;;;19.95;8.40;;;;;;;;;;4840974;29;20038;-65
2022/10/09 08:08:50;;;;;;;15.55;8.00;;;;;;;;;;4843924;29;20042;-64
2022/10/09 08:11:17;;;;;;;15.32;8.00;;;;;;;;;;4848875;29;20080;-63
2022/10/09 08:13:44;;;;;;;16.48;7.95;;;;;;;;;;4840083;29;20116;-64
2022/10/09 08:16:09;;;;;;;17.80;8.88;;;;;;;;;;4841024;29;20049;-64
2022/10/09 08:18:35;;;;;;;17.80;8.40;;;;;;;;;;4841334;29;20034;-64
2022/10/09 08:21:04;;;;;;;17.80;8.43;;;;;;;;;;4840907;29;20116;-64
2022/10/09 08:23:29;;;;;;;15.73;7.97;;;;;;;;;;4841132;29;20042;-64
2022/10/09 08:25:55;;;;;;;15.98;8.15;;;;;;;;;;4839119;29;20179;-64
2022/10/09 08:28:21;;;;;;;16.00;6.90;;;;;;;;;;4840771;29;20115;-63
2022/10/09 08:30:46;;;;;;;13.43;7.60;;;;;;;;;;4839329;29;20180;-65
2022/10/09 08:33:12;;;;;;;16.10;6.75;;;;;;;;;;4839253;29;20034;-64
2022/10/09 08:35:37;;;;;;;11.02;6.90;;;;;;;;;;4841207;29;20053;-65
2022/10/09 08:38:03;;;;;;;12.93;7.28;;;;;;;;;;4840520;29;20041;-64
2022/10/09 08:40:50;;;;;;;13.20;6.57;;;;;;;;;;4840479;29;20408;-64
2022/10/09 08:43:22;;;;;;;14.63;6.57;;;;;;;;;;4854928;29;20059;-64
2022/10/09 08:45:49;;;;;;;11.98;6.03;;;;;;;;;;4840356;29;20029;-64
2022/10/09 08:48:20;;;;;;;12.60;5.95;;;;;;;;;;4840563;29;20034;-64
2022/10/09 08:50:49;;;;;;;11.20;5.57;;;;;;;;;;4840729;29;20061;-64
2022/10/09 08:53:30;;;;;;;11.60;5.65;;;;;;;;;;4841218;29;20038;-64
2022/10/09 08:55:57;;;;;;;13.32;5.45;;;;;;;;;;4840263;29;20046;-64
2022/10/09 08:58:29;;;;;;;11.52;5.70;;;;;;;;;;4839905;29;20042;-63
2022/10/09 09:01:41;;;;;;;10.75;5.50;;;;;;;;;;4840209;29;20117;-63
2022/10/09 09:04:09;;;;;;;11.48;4.97;;;;;;;;;;4840327;29;20514;-64
2022/10/09 09:06:38;;;;;;;10.30;4.50;;;;;;;;;;4841105;29;20034;-63
2022/10/09 09:09:21;;;;;;;12.52;4.70;;;;;;;;;;4840526;29;20042;-63
2022/10/09 09:12:00;;;;;;;8.70;4.82;;;;;;;;;;4838760;29;20456;-63
2022/10/09 09:14:26;;;;;;;10.18;4.72;;;;;;;;;;4840743;29;20030;-63
2022/10/09 09:17:12;;;;;;;7.35;4.45;;;;;;;;;;4840128;29;20391;-63
2022/10/09 09:19:50;;;;;;;7.80;4.07;;;;;;;;;;4840971;29;20158;-65
2022/10/09 09:22:15;;;;;;;9.63;4.10;;;;;;;;;;4840537;29;20472;-64
2022/10/09 09:24:50;;;;;;;8.77;4.03;;;;;;;;;;4853606;29;20037;-65
2022/10/09 09:27:25;;;;;;;10.02;3.95;;;;;;;;;;4840750;29;20061;-64
2022/10/09 09:30:03;;;;;;;9.35;3.83;;;;;;;;;;4840036;29;20030;-64
2022/10/09 09:32:30;;;;;;;7.63;3.97;;;;;;;;;;4839452;29;20046;-64
2022/10/09 09:35:13;;;;;;;9.70;4.15;;;;;;;;;;4840102;29;20464;-63
2022/10/09 09:37:38;;;;;;;9.05;4.20;;;;;;;;;;4843218;29;20102;-65
2022/10/09 09:40:04;;;;;;;8.20;4.07;;;;;;;;;;4843790;29;20045;-63
2022/10/09 09:42:30;;;;;;;9.85;3.83;;;;;;;;;;4843948;29;20042;-64
2022/10/09 09:45:04;;;;;;;8.00;3.70;;;;;;;;;;4842701;29;20033;-64
2022/10/09 09:47:39;;;;;;;6.90;3.05;;;;;;;;;;4844029;29;20117;-64
2022/10/09 09:50:05;;;;;;;6.50;2.80;;;;;;;;;;4844082;29;20066;-63
2022/10/09 09:52:36;;;;;;;10.25;3.03;;;;;;;;;;4843934;29;20048;-64
2022/10/09 09:55:03;;;;;;;6.45;3.03;;;;;;;;;;4857392;29;20026;-64
2022/10/09 09:57:33;;;;;;;5.90;2.28;;;;;;;;;;4844350;29;20403;-64
2022/10/09 10:00:27;;;;;;;6.80;2.58;;;;;;;;;;4843766;29;20062;-64
2022/10/09 10:03:10;;;;;;;6.03;2.47;;;;;;;;;;4825734;29;20050;-64
2022/10/09 10:05:37;;;;;;;7.55;2.50;;;;;;;;;;4841230;29;20038;-64
2022/10/09 10:08:35;;;;;;;8.70;2.60;;;;;;;;;;4841178;29;20423;-63
2022/10/09 10:11:04;;;;;;;9.07;2.38;;;;;;;;;;4802054;29;20053;-64
2022/10/09 10:13:37;;;;;;;6.55;2.60;;;;;;;;;;4843614;29;20045;-64
2022/10/09 10:16:05;;;;;;;9.98;2.65;;;;;;;;;;4843031;29;20049;-64
2022/10/09 10:18:38;;;;;;;6.32;2.45;;;;;;;;;;4843971;29;20033;-64
2022/10/09 10:21:07;;;;;;;5.75;2.33;;;;;;;;;;4843000;29;20246;-64
2022/10/09 10:23:49;;;;;;;6.00;2.47;;;;;;;;;;4842074;29;20042;-64
2022/10/09 10:26:47;;;;;;;6.57;2.97;;;;;;;;;;4843968;29;20121;-62
2022/10/09 10:29:19;;;;;;;6.90;2.40;;;;;;;;;;4843419;29;20047;-63
2022/10/09 10:32:13;;;;;;;6.50;2.20;;;;;;;;;;4842512;29;20480;-63
2022/10/09 10:35:04;;;;;;;4.70;2.10;;;;;;;;;;4842689;29;20048;-64
2022/10/09 10:37:44;;;;;;;6.00;2.03;;;;;;;;;;4841326;29;20045;-63
2022/10/09 10:40:38;;;;;;;3.45;2.00;;;;;;;;;;4843252;29;20395;-63
2022/10/09 10:43:09;;;;;;;5.55;2.03;;;;;;;;;;4842668;29;20044;-63
2022/10/09 10:45:58;;;;;;;8.68;2.20;;;;;;;;;;4843592;29;20056;-63
2022/10/09 10:48:30;;;;;;;5.32;2.10;;;;;;;;;;4842954;29;20030;-62
2022/10/09 10:50:59;;;;;;;7.32;2.22;;;;;;;;;;4842106;29;20379;-62
2022/10/09 10:53:34;;;;;;;6.28;2.08;;;;;;;;;;4840962;29;20498;-62
2022/10/09 10:56:06;;;;;;;7.40;1.98;;;;;;;;;;4843278;29;20033;-62
2022/10/09 10:58:52;;;;;;;6.18;2.10;;;;;;;;;;4843121;29;20040;-63
2022/10/09 11:01:44;;;;;;;4.72;1.80;;;;;;;;;;4824686;29;20037;-62
2022/10/09 11:04:27;;;;;;;7.68;2.00;;;;;;;;;;4841047;29;20077;-62
2022/10/09 11:06:58;;;;;;;4.53;1.92;;;;;;;;;;4842287;29;20177;-62
2022/10/09 11:09:46;;;;;;;8.00;1.92;;;;;;;;;;4843111;29;20068;-62
2022/10/09 11:12:24;;;;;;;8.10;2.10;;;;;;;;;;4842814;29;20463;-62
2022/10/09 11:15:15;;;;;;;6.78;1.88;;;;;;;;;;4842019;29;20459;-62
2022/10/09 11:18:13;;;;;;;8.98;2.00;;;;;;;;;;4842273;29;20395;-64
2022/10/09 11:21:07;;;;;;;6.82;2.00;;;;;;;;;;4841538;29;20040;-64
2022/10/09 11:23:57;;;;;;;6.35;1.95;;;;;;;;;;4843010;29;20428;-62
2022/10/09 11:26:29;;;;;;;4.82;1.88;;;;;;;;;;4842524;29;20049;-62
2022/10/09 11:29:12;;;;;;;6.47;2.03;;;;;;;;;;4841923;29;20399;-62
2022/10/09 11:31:46;;;;;;;6.25;2.10;;;;;;;;;;4842367;29;20074;-63
2022/10/09 11:34:19;;;;;;;4.68;2.10;;;;;;;;;;4842665;29;20034;-62
2022/10/09 11:36:44;;;;;;;5.15;1.90;;;;;;;;;;4840148;29;20046;-63
2022/10/09 11:39:14;;;;;;;4.05;2.05;;;;;;;;;;4842493;29;20034;-63
2022/10/09 11:41:44;;;;;;;4.75;2.00;;;;;;;;;;4841596;29;20037;-64
2022/10/09 11:44:30;;;;;;;6.90;2.17;;;;;;;;;;4842342;29;20069;-62
2022/10/09 11:47:14;;;;;;;4.85;1.73;;;;;;;;;;4841863;29;20030;-63
2022/10/09 11:50:33;;;;;;;8.23;1.98;;;;;;;;;;4844630;29;20041;-64
2022/10/09 11:53:14;;;;;;;6.65;2.20;;;;;;;;;;4823569;29;20750;-63
2022/10/09 11:55:41;;;;;;;5.32;1.70;;;;;;;;;;4840711;29;20037;-64
2022/10/09 11:58:25;;;;;;;4.47;1.60;;;;;;;;;;4843783;29;20041;-63
2022/10/09 12:00:52;;;;;;;5.85;1.88;;;;;;;;;;4840302;29;20038;-63
2022/10/09 12:03:35;;;;;;;5.50;1.58;;;;;;;;;;4840578;29;20060;-63
2022/10/09 12:06:16;;;;;;;6.60;2.00;;;;;;;;;;4841630;29;20037;-63
2022/10/09 12:09:01;;;;;;;;;;;;;;;;;;4842074;29;20490;-63
2022/10/09 12:11:27;;;;;;;3.22;1.70;;;;;;;;;;4840709;29;19926;-63
2022/10/09 12:14:02;;;;;;;4.88;1.98;;;;;;;;;;4840539;29;20118;-63
2022/10/09 12:16:43;;;;;;;6.00;1.83;;;;;;;;;;4841887;29;20475;-64
2022/10/09 12:19:23;;;;;;;4.22;1.67;;;;;;;;;;4841634;29;20053;-64
2022/10/09 12:21:55;;;;;;;3.65;1.70;;;;;;;;;;5064348;28;20403;-63
2022/10/09 12:24:24;;;;;;;4.55;1.65;;;;;;;;;;5066954;28;20083;-63
2022/10/09 12:26:52;;;;;;;4.43;1.50;;;;;;;;;;5028505;28;20052;-64
2022/10/09 12:29:30;;;;;;;2.88;1.40;;;;;;;;;;5029672;28;20452;-63
2022/10/09 12:32:02;;;;;;;4.60;1.67;;;;;;;;;;5028206;28;20041;-64
2022/10/09 12:34:41;;;;;;;4.70;1.60;;;;;;;;;;5029135;28;20029;-63
2022/10/09 12:37:12;;;;;;;5.75;1.70;;;;;;;;;;5057977;28;20083;-64
2022/10/09 12:39:37;;;;;;;3.50;1.40;;;;;;;;;;5067130;28;20037;-63
2022/10/09 12:42:03;;;;;;;5.05;1.90;;;;;;;;;;5067739;28;20032;-64
2022/10/09 12:44:37;;;;;;;5.32;1.60;;;;;;;;;;5062018;28;20118;-64
2022/10/09 12:47:06;;;;;;;3.78;1.40;;;;;;;;;;5028088;28;20022;-64
2022/10/09 12:49:31;;;;;;;4.30;1.50;;;;;;;;;;5043878;28;20529;-64
2022/10/09 12:51:59;;;;;;;4.05;1.50;;;;;;;;;;5055961;28;20128;-64
2022/10/09 12:54:26;;;;;;;4.82;1.58;;;;;;;;;;5068611;28;20303;-64
2022/10/09 12:56:54;;;;;;;5.38;1.52;;;;;;;;;;5060452;28;20041;-64
2022/10/09 12:59:21;;;;;;;3.20;1.48;;;;;;;;;;5066619;28;20439;-64
2022/10/09 13:01:48;;;;;;;4.28;1.70;;;;;;;;;;5055512;28;20040;-66
2022/10/09 13:04:26;;;;;;;4.68;1.40;;;;;;;;;;5028055;28;20033;-64
2022/10/09 13:06:53;;;;;;;4.20;1.50;;;;;;;;;;5031158;28;20156;-65
2022/10/09 13:09:21;;;;;;;5.10;1.80;;;;;;;;;;5066660;28;20488;-65
2022/10/09 13:11:54;;;;;;;3.33;1.38;;;;;;;;;;5067184;28;20483;-65
2022/10/09 13:14:24;;;;;;;4.07;1.45;;;;;;;;;;5068363;28;20028;-65
2022/10/09 13:16:49;;;;;;;3.88;1.40;;;;;;;;;;5066181;28;20036;-65
2022/10/09 13:19:24;;;;;;;5.07;1.55;;;;;;;;;;5048632;28;20045;-65
2022/10/09 13:22:02;;;;;;;3.30;1.42;;;;;;;;;;5052469;28;20135;-65
2022/10/09 13:24:28;;;;;;;3.22;1.50;;;;;;;;;;5063604;28;20032;-65
2022/10/09 13:26:53;;;;;;;3.17;1.40;;;;;;;;;;5027205;28;20378;-65
2022/10/09 13:29:19;;;;;;;3.88;1.60;;;;;;;;;;5027842;28;20117;-65
2022/10/09 13:31:44;;;;;;;5.60;1.70;;;;;;;;;;5022463;28;20500;-65
2022/10/09 13:34:11;;;;;;;4.15;1.40;;;;;;;;;;5014416;28;20033;-65
2022/10/09 13:36:37;;;;;;;3.22;1.40;;;;;;;;;;5036259;28;20065;-65
2022/10/09 13:39:03;;;;;;;4.25;1.30;;;;;;;;;;5052174;28;20068;-65
2022/10/09 13:41:28;;;;;;;6.10;1.50;;;;;;;;;;5053855;28;20063;-65
2022/10/09 13:43:54;;;;;;;2.97;1.50;;;;;;;;;;5052942;28;20136;-65
2022/10/09 13:46:19;;;;;;;6.35;1.83;;;;;;;;;;5053868;28;20052;-65
2022/10/09 13:48:45;;;;;;;3.40;1.60;;;;;;;;;;5053052;28;20568;-65
2022/10/09 13:51:10;;;;;;;4.00;1.40;;;;;;;;;;5037121;28;20030;-64
2022/10/09 13:53:36;;;;;;;5.40;1.60;;;;;;;;;;5029729;28;20484;-65
2022/10/09 13:56:02;;;;;;;4.53;1.50;;;;;;;;;;5035991;28;20499;-64
2022/10/09 13:58:28;;;;;;;3.90;1.42;;;;;;;;;;5053700;28;20040;-65
2022/10/09 14:00:53;;;;;;;3.05;1.33;;;;;;;;;;5043412;28;20096;-64
2022/10/09 14:03:20;;;;;;;4.68;1.70;;;;;;;;;;5052058;28;20033;-64
2022/10/09 14:05:45;;;;;;;2.90;1.60;;;;;;;;;;5049541;28;20037;-65
2022/10/09 14:08:11;;;;;;;3.55;1.63;;;;;;;;;;5046000;28;20468;-64
2022/10/09 14:10:43;;;;;;;4.30;1.58;;;;;;;;;;5028343;28;20034;-66
2022/10/09 14:13:13;;;;;;;4.47;1.90;;;;;;;;;;5041397;28;20044;-64
2022/10/09 14:15:39;;;;;;;3.72;1.65;;;;;;;;;;5051486;28;20067;-65
2022/10/09 14:18:05;;;;;;;4.05;1.60;;;;;;;;;;5050019;28;20041;-64
2022/10/09 14:20:31;;;;;;;4.72;1.42;;;;;;;;;;5049940;28;20052;-64
2022/10/09 14:22:56;;;;;;;4.30;1.60;;;;;;;;;;5035485;28;20030;-64
2022/10/09 14:25:22;;;;;;;3.55;1.60;;;;;;;;;;5030083;28;20374;-64
2022/10/09 14:27:47;;;;;;;4.22;1.85;;;;;;;;;;5013519;28;20037;-64
2022/10/09 14:30:13;;;;;;;3.25;1.60;;;;;;;;;;5045276;28;20090;-64
2022/10/09 14:32:38;;;;;;;4.00;1.70;;;;;;;;;;5051446;28;20035;-66
2022/10/09 14:35:04;;;;;;;5.88;2.05;;;;;;;;;;5046694;28;20188;-64
2022/10/09 14:37:29;;;;;;;3.50;1.67;;;;;;;;;;5051928;28;20032;-66
2022/10/09 14:39:54;;;;;;;2.70;1.60;;;;;;;;;;5042134;28;20455;-65
2022/10/09 14:42:20;;;;;;;4.65;1.70;;;;;;;;;;5037922;28;20036;-65
2022/10/09 14:44:45;;;;;;;4.47;1.75;;;;;;;;;;5023020;28;20465;-65
2022/10/09 14:47:11;;;;;;;3.20;1.65;;;;;;;;;;5050516;28;20031;-64
2022/10/09 14:49:36;;;;;;;2.58;1.52;;;;;;;;;;5049522;28;20378;-64
2022/10/09 14:52:01;;;;;;;5.10;1.95;;;;;;;;;;5051638;28;20039;-64
2022/10/09 14:54:27;;;;;;;3.55;1.85;;;;;;;;;;5051785;28;20405;-65